< < Back
Terminal Aerodrome Forecast


Current Version              Previous Versions:   1  2  3  4  5  6  7  8  9  

Terminal Aerodrome Forecast

718
FTUS42 KGSP 240500 CCA
TAFAND
TAF COR
KAND 240552Z 2406/2506 26005KT P6SM SCT070
     FM241700 26008KT P6SM BKN070 PROB30 2419/2423 4SM TSRA BKN040CB
     FM250000 24007KT P6SM BKN040
     FM250400 23005KT P6SM SCT120=

Latest METAR

763
SAUS70 KWBC 250500 RRA
MTRAND
METAR KAND 250456Z AUTO 00000KT 10SM BKN095 24/22 A2998 RMK AO2 SLP139
T02390217 403220211


USA.gov is the U.S. government's official web portal to all federal, state and local government web resources and services.